Palo Alto, CA

11:05 PM PDT on September 18, 2014 (GMT -0700)
Palo Alto Of Santa Clara County | Change Station
CLOSE
Current Station
Airport
Location: Palo Alto,
Elevation: 7 ft
Nearby Weather Stations

Elev 7 ft 37.46 °N, 122.12 °W | Updated 2 hours ago

Partly Cloudy
Partly Cloudy
68 °F
Feels Like 68 °F
N
12
Wind Variable Wind from NW

Today
High -- | Low -- °F
--% Chance of Precip.
Yesterday
High -- | Low -- °F
Precip. -- in
6:53 AM 7:11 PM
Waning Crescent, 21% visible
Pressure 29.85 in
Visibility 15.0 miles
Clouds Scattered Clouds 2500 ft
Dew Point 64 °F
Humidity 88%
Rainfall 0.00 in
Snow Depth 0 in , 0 in , 1 in
UV 0 out of 12
Pollen 5.10 out of 12
PM2.5 Good
Flu Activity Not available.
METAR KPAO 190347Z 31010KT 15SM SCT025 20/18 A2985

More Conditions Fewer Conditions

Pressure 29.85 in
Visibility 15.0 miles
Clouds Scattered Clouds 2500 ft
Dew Point 64 °F
Humidity 88%
Rainfall 0.00 in
Snow Depth 0 in , 0 in , 1 in
UV 0 out of 12
Pollen 5.10 out of 12
PM2.5 Good
Flu Activity Not available.
METAR KPAO 190347Z 31010KT 15SM SCT025 20/18 A2985

More Conditions Fewer Conditions

10-Day Weather Forecast

Almanac

Astronomy

Sep. 18, 2014 Rise Set
Actual Time 6:53 AM PDT 7:11 PM PDT
Civil Twilight 6:26 AM PDT 7:37 PM PDT
Nautical Twilight 5:56 AM PDT 8:08 PM PDT
Astronomical Twilight 5:24 AM PDT 8:39 PM PDT
Moon 1:54 AM PDT (9/18) 4:01 PM PDT (9/18)
Length of Visible Light 13h 10m
Length of Day
12h 18m
Tomorrow will be 2m 22s shorter.
Waning Crescent, 21% of the Moon is Illuminated
Sep 19
Waning Crescent
Sep 24
New
Oct 1
First Quarter
Oct 8
Full
Oct 15
Last Quarter

Yesterday's Extremes

State Highs State Lows

Community

WunderPhotos

Upload Photos

1,754,575 photos uploaded!

Nearby

Air Quality

  Air Quality AQ Index Pollutant
Yesterday Good
PM2.5
Yesterday Good
OZONE
Current Good
PM2.5
Thursday Good
OZONE
Friday Good
OZONE
Saturday Moderate
PM2.5
Sunday Moderate
PM2.5
Monday Good
PM2.5
Tuesday Good
PM2.5

Snow Depth

Station Depth Elevation
Tahoe City Cross 0 in 6750 ft
Squaw Valley 0 in 8200 ft
Echo Peak 1 in 7800 ft
Spratt Creek 1 in 6200 ft
Adin Mountain 2 in 6200 ft

Earthquake Activity

City Distance Mag. Time & Date
The Geysers, California 95 miles 2.5 11:29 PM PDT
2014-09-17
Cobb, California 97 miles 2.7 1:23 PM PDT
2014-09-16
Minimum magnitude displayed is 2.5.

Coastal Water Temperatures

Place Temperature
No Stations Reporting

Nearby Weather Stations